createdAt,value
2023-01-09T00:00:01.838Z,100.00
2023-01-09T00:02:29.527Z,100.00
2023-01-09T00:04:58.491Z,100.00
2023-01-09T00:07:26.193Z,100.00
2023-01-09T00:09:53.869Z,100.00
2023-01-09T00:12:21.530Z,100.00
2023-01-09T00:14:49.171Z,100.00
2023-01-09T00:17:16.808Z,100.00
2023-01-09T00:19:44.655Z,100.00
2023-01-09T00:22:13.646Z,100.00
2023-01-09T00:24:41.704Z,100.00
2023-01-09T00:27:09.501Z,100.00
2023-01-09T00:29:37.099Z,100.00
2023-01-09T00:32:10.036Z,100.00
2023-01-09T00:34:38.395Z,100.00
2023-01-09T00:37:11.966Z,100.00
2023-01-09T00:39:41.442Z,100.00
2023-01-09T00:42:11.736Z,100.00
2023-01-09T00:44:42.584Z,100.00
2023-01-09T00:47:16.991Z,100.00
2023-01-09T00:49:45.596Z,100.00
2023-01-09T00:52:15.114Z,100.00
2023-01-09T00:54:48.635Z,100.00
2023-01-09T00:57:21.493Z,100.00
2023-01-09T00:59:52.308Z,100.00
2023-01-09T01:02:20.824Z,100.00
2023-01-09T01:05:06.144Z,100.00
2023-01-09T01:07:40.139Z,100.00
2023-01-09T01:10:16.432Z,100.00
2023-01-09T01:12:46.546Z,100.00
2023-01-09T01:15:15.891Z,100.00
2023-01-09T01:17:44.782Z,100.00
2023-01-09T01:20:16.025Z,100.00
2023-01-09T01:22:43.975Z,100.00
2023-01-09T01:25:15.281Z,100.00
2023-01-09T01:27:43.597Z,100.00
2023-01-09T01:30:13.532Z,100.00
2023-01-09T01:32:42.119Z,100.00
2023-01-09T01:35:11.034Z,100.00
2023-01-09T01:37:40.123Z,100.00
2023-01-09T01:40:10.955Z,100.00
2023-01-09T01:42:38.734Z,100.00
2023-01-09T01:47:41.976Z,100.00
2023-01-09T01:50:13.783Z,100.00
2023-01-09T01:52:43.056Z,100.00
2023-01-09T01:55:12.320Z,100.00
2023-01-09T01:57:42.525Z,100.00
2023-01-09T02:00:12.447Z,100.00
2023-01-09T02:05:31.871Z,100.00
2023-01-09T02:07:59.884Z,100.00
2023-01-09T02:12:55.282Z,100.00
2023-01-09T02:15:23.380Z,100.00
2023-01-09T02:20:47.585Z,100.00
2023-01-09T02:25:51.748Z,100.00
2023-01-09T02:31:06.739Z,100.00
2023-01-09T02:33:36.752Z,100.00
2023-01-09T02:38:39.821Z,100.00
2023-01-09T02:43:36.736Z,100.00
2023-01-09T02:46:06.040Z,100.00
2023-01-09T02:48:33.800Z,100.00
2023-01-09T02:51:10.398Z,100.00
2023-01-09T02:53:39.746Z,100.00
2023-01-09T02:58:50.861Z,100.00
2023-01-09T03:01:27.866Z,100.00
2023-01-09T03:04:02.682Z,100.00
2023-01-09T03:06:35.604Z,100.00
2023-01-09T03:09:06.557Z,100.00
2023-01-09T03:11:36.977Z,100.00
2023-01-09T03:14:08.358Z,100.00
2023-01-09T03:16:38.419Z,100.00
2023-01-09T03:19:08.847Z,100.00
2023-01-09T03:21:36.968Z,100.00
2023-01-09T03:24:05.174Z,100.00
2023-01-09T03:26:32.957Z,100.00
2023-01-09T03:29:00.935Z,100.00
2023-01-09T03:31:28.621Z,100.00
2023-01-09T03:33:57.688Z,100.00
2023-01-09T03:36:25.746Z,100.00
2023-01-09T03:38:53.616Z,100.00
2023-01-09T03:41:21.287Z,100.00
2023-01-09T03:43:49.383Z,100.00
2023-01-09T03:46:17.635Z,100.00
2023-01-09T03:48:45.628Z,100.00
2023-01-09T03:51:14.573Z,100.00
2023-01-09T03:53:42.319Z,100.00
2023-01-09T03:56:09.941Z,100.00
2023-01-09T03:58:37.623Z,100.00
2023-01-09T04:01:09.379Z,100.00
2023-01-09T04:03:37.275Z,100.00
2023-01-09T04:06:05.434Z,100.00
2023-01-09T04:08:34.497Z,100.00
2023-01-09T04:11:02.236Z,100.00
2023-01-09T04:13:29.959Z,100.00
2023-01-09T04:15:57.576Z,100.00
2023-01-09T04:18:25.277Z,100.00
2023-01-09T04:20:55.211Z,100.00
2023-01-09T04:23:23.018Z,100.00
2023-01-09T04:25:51.963Z,100.00
2023-01-09T04:28:19.621Z,100.00
2023-01-09T04:30:47.227Z,100.00
2023-01-09T04:33:14.878Z,100.00
2023-01-09T04:35:42.541Z,100.00
2023-01-09T04:38:10.183Z,100.00
2023-01-09T04:40:37.778Z,100.00
2023-01-09T04:43:06.740Z,100.00
2023-01-09T04:45:34.401Z,100.00
2023-01-09T04:48:02.094Z,100.00
2023-01-09T04:50:31.336Z,100.00
2023-01-09T04:52:59.163Z,100.00
2023-01-09T04:55:26.768Z,100.00
2023-01-09T04:57:54.540Z,100.00
2023-01-09T05:00:23.644Z,100.00
2023-01-09T05:02:51.533Z,100.00
2023-01-09T05:05:19.517Z,100.00
2023-01-09T05:07:47.280Z,100.00
2023-01-09T05:10:14.993Z,100.00
2023-01-09T05:12:42.676Z,100.00
2023-01-09T05:15:10.943Z,100.00
2023-01-09T05:17:39.927Z,100.00
2023-01-09T05:20:08.302Z,100.00
2023-01-09T05:22:36.702Z,100.00
2023-01-09T05:30:21.492Z,100.00
2023-01-09T05:32:50.621Z,100.00
2023-01-09T05:35:18.661Z,100.00
2023-01-09T05:37:46.270Z,100.00
2023-01-09T05:40:14.760Z,100.00
2023-01-09T05:42:43.770Z,100.00
2023-01-09T05:45:12.695Z,100.00
2023-01-09T05:47:40.416Z,100.00
2023-01-09T05:50:10.854Z,100.00
2023-01-09T05:52:38.665Z,100.00
2023-01-09T05:55:07.558Z,100.00
2023-01-09T05:57:35.324Z,100.00
2023-01-09T06:00:05.929Z,100.00
2023-01-09T06:02:33.778Z,100.00
2023-01-09T06:05:01.451Z,100.00
2023-01-09T06:07:30.379Z,100.00
2023-01-09T06:09:57.961Z,100.00
2023-01-09T06:12:26.099Z,100.00
2023-01-09T06:14:53.772Z,100.00
2023-01-09T06:17:21.399Z,100.00
2023-01-09T06:19:49.012Z,100.00
2023-01-09T06:22:16.638Z,100.00
2023-01-09T06:24:45.592Z,100.00
2023-01-09T06:27:13.694Z,100.00
2023-01-09T06:29:41.695Z,100.00
2023-01-09T06:32:09.329Z,100.00
2023-01-09T06:34:36.956Z,100.00
2023-01-09T06:37:04.595Z,100.00
2023-01-09T06:39:33.925Z,100.00
2023-01-09T06:42:03.358Z,100.00
2023-01-09T06:44:31.037Z,100.00
2023-01-09T06:46:58.670Z,100.00
2023-01-09T06:49:26.509Z,100.00
2023-01-09T06:51:54.294Z,100.00
2023-01-09T06:54:22.532Z,100.00
2023-01-09T06:56:50.271Z,100.00
2023-01-09T06:59:19.438Z,100.00
2023-01-09T07:01:47.268Z,100.00
2023-01-09T07:04:17.649Z,100.00
2023-01-09T07:06:48.229Z,100.00
2023-01-09T07:09:15.947Z,100.00
2023-01-09T07:11:43.916Z,100.00
2023-01-09T07:14:11.611Z,100.00
2023-01-09T07:16:40.886Z,100.00
2023-01-09T07:19:08.572Z,100.00
2023-01-09T07:21:36.269Z,100.00
2023-01-09T07:24:04.064Z,100.00
2023-01-09T07:29:18.560Z,100.00
2023-01-09T07:31:47.710Z,100.00
2023-01-09T07:34:15.299Z,100.00
2023-01-09T07:36:46.334Z,100.00
2023-01-09T07:39:14.083Z,100.00
2023-01-09T07:41:41.700Z,100.00
2023-01-09T07:44:11.062Z,100.00
2023-01-09T07:46:39.047Z,100.00
2023-01-09T07:49:08.382Z,100.00
2023-01-09T07:51:39.000Z,100.00
2023-01-09T07:54:06.969Z,100.00
2023-01-09T07:56:34.542Z,100.00
2023-01-09T07:59:02.289Z,100.00
2023-01-09T08:01:29.969Z,100.00
2023-01-09T08:03:57.628Z,100.00
2023-01-09T08:06:26.602Z,100.00
2023-01-09T08:08:54.238Z,100.00
2023-01-09T08:11:21.875Z,100.00
2023-01-09T08:13:49.397Z,100.00
2023-01-09T08:16:17.080Z,100.00
2023-01-09T08:18:44.779Z,100.00
2023-01-09T08:21:12.434Z,100.00
2023-01-09T08:23:41.399Z,100.00
2023-01-09T08:26:09.269Z,100.00
2023-01-09T08:28:36.836Z,100.00
2023-01-09T08:31:04.580Z,100.00
2023-01-09T08:33:32.722Z,100.00
2023-01-09T08:36:00.333Z,100.00
2023-01-09T08:38:27.966Z,100.00
2023-01-09T08:40:56.973Z,100.00
2023-01-09T08:43:42.086Z,100.00
2023-01-09T08:46:34.793Z,100.00
2023-01-09T08:49:02.574Z,100.00
2023-01-09T08:51:30.486Z,100.00
2023-01-09T08:53:58.042Z,100.00
2023-01-09T08:56:27.052Z,100.00
2023-01-09T08:58:56.994Z,100.00
2023-01-09T09:01:24.731Z,100.00
2023-01-09T09:03:52.437Z,100.00
2023-01-09T09:06:20.129Z,100.00
2023-01-09T09:08:47.732Z,100.00
2023-01-09T09:11:15.341Z,100.00
2023-01-09T09:13:44.307Z,100.00
2023-01-09T09:16:12.127Z,100.00
2023-01-09T09:18:39.958Z,100.00
2023-01-09T09:21:08.291Z,100.00
2023-01-09T09:23:37.210Z,100.00
2023-01-09T09:26:05.076Z,100.00
2023-01-09T09:28:32.670Z,100.00
2023-01-09T09:31:01.690Z,100.00
2023-01-09T09:33:30.247Z,100.00
2023-01-09T09:35:59.492Z,100.00
2023-01-09T09:38:27.542Z,100.00
2023-01-09T09:41:38.588Z,100.00
2023-01-09T09:44:52.736Z,100.00
2023-01-09T09:47:33.045Z,100.00
2023-01-09T09:50:07.459Z,100.00
2023-01-09T09:52:40.835Z,100.00
2023-01-09T09:55:16.372Z,100.00
2023-01-09T09:57:45.135Z,100.00
2023-01-09T10:00:17.381Z,100.00
2023-01-09T10:02:51.641Z,100.00
2023-01-09T10:05:22.513Z,100.00
2023-01-09T10:07:51.420Z,100.00
2023-01-09T10:10:24.161Z,100.00
2023-01-09T10:12:54.689Z,100.00
2023-01-09T10:15:38.987Z,100.00
2023-01-09T10:18:17.625Z,100.00
2023-01-09T10:20:56.573Z,100.00
2023-01-09T10:23:36.044Z,100.00
2023-01-09T10:26:08.202Z,100.00
2023-01-09T10:28:51.335Z,100.00
2023-01-09T10:31:27.336Z,100.00
2023-01-09T10:34:04.786Z,100.00
2023-01-09T10:36:49.405Z,100.00
2023-01-09T10:39:20.008Z,100.00
2023-01-09T10:41:53.791Z,100.00
2023-01-09T10:44:25.299Z,100.00
2023-01-09T10:46:55.290Z,100.00
2023-01-09T10:49:25.422Z,100.00
2023-01-09T10:51:54.240Z,100.00
2023-01-09T10:54:23.713Z,100.00
2023-01-09T10:56:58.417Z,100.00
2023-01-09T10:59:26.360Z,100.00
2023-01-09T11:01:54.704Z,100.00
2023-01-09T11:04:28.265Z,100.00
2023-01-09T11:06:59.824Z,100.00
2023-01-09T11:09:27.504Z,99.57
2023-01-09T11:11:55.307Z,99.50
2023-01-09T11:14:31.112Z,99.76
2023-01-09T11:17:01.356Z,100.00
2023-01-09T11:19:33.226Z,98.72
2023-01-09T11:22:08.684Z,98.40
2023-01-09T11:24:36.414Z,98.12
2023-01-09T11:27:25.136Z,97.87
2023-01-09T11:30:26.439Z,98.50
2023-01-09T11:32:55.424Z,97.79
2023-01-09T11:35:28.182Z,98.45
2023-01-09T11:38:03.566Z,99.36
2023-01-09T11:40:36.832Z,98.47
2023-01-09T11:43:12.566Z,97.75
2023-01-09T11:45:53.191Z,98.03
2023-01-09T11:48:35.965Z,97.61
2023-01-09T11:51:06.947Z,98.23
2023-01-09T11:53:47.290Z,98.86
2023-01-09T11:56:15.862Z,98.27
2023-01-09T11:58:43.674Z,98.60
2023-01-09T12:01:31.553Z,98.45
2023-01-09T12:04:10.365Z,98.53
2023-01-09T12:06:45.104Z,98.81
2023-01-09T12:09:18.812Z,99.11
2023-01-09T12:11:51.592Z,98.02
2023-01-09T12:14:30.098Z,98.27
2023-01-09T12:17:21.522Z,99.37
2023-01-09T12:20:01.787Z,98.85
2023-01-09T12:22:38.251Z,97.94
2023-01-09T12:25:23.426Z,97.91
2023-01-09T12:28:04.789Z,97.93
2023-01-09T12:30:45.597Z,98.20
2023-01-09T12:33:23.200Z,98.17
2023-01-09T12:35:57.251Z,96.98
2023-01-09T12:38:48.845Z,97.01
2023-01-09T12:41:54.260Z,96.11
2023-01-09T12:44:42.427Z,96.68
2023-01-09T12:47:19.633Z,96.76
2023-01-09T12:49:52.851Z,96.17
2023-01-09T12:52:23.396Z,95.97
2023-01-09T12:54:54.804Z,95.39
2023-01-09T12:57:27.829Z,95.25
2023-01-09T12:59:57.981Z,94.78
2023-01-09T13:02:30.590Z,95.04
2023-01-09T13:05:00.861Z,94.59
2023-01-09T13:07:31.496Z,93.73
2023-01-09T13:10:06.339Z,93.73
2023-01-09T13:12:37.073Z,93.74
2023-01-09T13:15:07.693Z,93.08
2023-01-09T13:17:40.190Z,92.67
2023-01-09T13:20:19.310Z,91.71
2023-01-09T13:22:50.223Z,91.52
2023-01-09T13:25:32.379Z,93.14
2023-01-09T13:28:02.129Z,92.95
2023-01-09T13:30:59.939Z,92.47
2023-01-09T13:33:29.629Z,92.92
2023-01-09T13:35:59.182Z,92.49
2023-01-09T13:38:28.820Z,92.70
2023-01-09T13:41:30.341Z,93.41
2023-01-09T13:43:59.828Z,93.44
2023-01-09T13:46:36.797Z,93.22
2023-01-09T13:49:04.871Z,93.05
2023-01-09T13:51:58.803Z,93.90
2023-01-09T13:55:01.665Z,93.76
2023-01-09T13:57:33.019Z,93.40
2023-01-09T14:00:39.456Z,93.98
2023-01-09T14:03:20.405Z,94.02
2023-01-09T14:06:11.920Z,93.67
2023-01-09T14:08:41.773Z,93.90
2023-01-09T14:11:10.029Z,93.70
2023-01-09T14:13:42.485Z,93.83
2023-01-09T14:16:17.365Z,94.66
2023-01-09T14:18:50.462Z,94.05
2023-01-09T14:21:18.799Z,93.31
2023-01-09T14:23:56.051Z,93.63
2023-01-09T14:26:27.468Z,93.54
2023-01-09T14:29:45.531Z,94.12
2023-01-09T14:32:39.002Z,94.39
2023-01-09T14:35:14.045Z,94.39
2023-01-09T14:37:41.963Z,94.68
2023-01-09T14:40:17.337Z,93.58
2023-01-09T14:42:46.126Z,94.65
2023-01-09T14:45:20.929Z,94.96
2023-01-09T14:47:51.338Z,94.80
2023-01-09T14:50:26.727Z,95.82
2023-01-09T14:52:56.776Z,95.92
2023-01-09T14:55:28.057Z,96.27
2023-01-09T14:57:56.988Z,96.26
2023-01-09T15:00:26.237Z,97.18
2023-01-09T15:02:54.460Z,96.80
2023-01-09T15:05:24.131Z,96.49
2023-01-09T15:07:54.336Z,96.46
2023-01-09T15:10:23.506Z,96.76
2023-01-09T15:12:52.896Z,96.50
2023-01-09T15:15:21.747Z,97.16
2023-01-09T15:17:55.315Z,96.82
2023-01-09T15:20:25.471Z,96.75
2023-01-09T15:22:54.848Z,97.43
2023-01-09T15:25:33.827Z,97.37
2023-01-09T15:28:25.141Z,96.86
2023-01-09T15:30:56.419Z,96.54
2023-01-09T15:33:25.628Z,96.89
2023-01-09T15:36:00.028Z,96.06
2023-01-09T15:38:28.816Z,96.00
2023-01-09T15:41:00.852Z,95.59
2023-01-09T15:43:30.545Z,95.60
2023-01-09T15:45:58.699Z,96.08
2023-01-09T15:48:30.655Z,96.25
2023-01-09T15:51:01.825Z,96.84
2023-01-09T15:53:30.394Z,97.11
2023-01-09T15:56:16.130Z,97.51
2023-01-09T15:58:47.185Z,97.61
2023-01-09T16:01:30.785Z,97.86
2023-01-09T16:04:05.975Z,98.12
2023-01-09T16:06:35.573Z,98.27
2023-01-09T16:09:03.864Z,98.43
2023-01-09T16:11:33.737Z,98.84
2023-01-09T16:14:13.381Z,99.78
2023-01-09T16:16:41.819Z,100.00
2023-01-09T16:19:42.504Z,100.00
2023-01-09T16:22:21.700Z,100.00
2023-01-09T16:24:53.405Z,100.00
2023-01-09T16:27:23.802Z,100.00
2023-01-09T16:29:57.407Z,100.00
2023-01-09T16:32:27.727Z,100.00
2023-01-09T16:34:58.150Z,100.00
2023-01-09T16:37:26.630Z,99.94
2023-01-09T16:40:24.077Z,99.75
2023-01-09T16:43:01.053Z,99.56
2023-01-09T16:45:30.386Z,99.85
2023-01-09T16:47:58.451Z,99.83
2023-01-09T16:50:27.755Z,99.76
2023-01-09T16:52:56.948Z,100.00
2023-01-09T16:55:24.795Z,99.84
2023-01-09T16:57:52.503Z,99.95
2023-01-09T17:00:22.058Z,100.00
2023-01-09T17:02:49.787Z,99.89
2023-01-09T17:05:17.582Z,99.62
2023-01-09T17:07:46.751Z,100.00
2023-01-09T17:10:20.772Z,99.96
2023-01-09T17:12:49.541Z,100.00
2023-01-09T17:15:17.807Z,100.00
2023-01-09T17:17:45.774Z,100.00
2023-01-09T17:20:18.163Z,100.00
2023-01-09T17:22:47.115Z,100.00
2023-01-09T17:25:33.542Z,100.00
2023-01-09T17:28:19.284Z,99.34
2023-01-09T17:30:47.902Z,99.91
2023-01-09T17:36:03.139Z,98.73
2023-01-09T17:38:32.282Z,99.06
2023-01-09T17:40:59.959Z,98.97
2023-01-09T17:43:27.629Z,99.38
2023-01-09T17:45:55.417Z,99.01
2023-01-09T17:48:25.282Z,99.34
2023-01-09T17:50:52.981Z,98.74
2023-01-09T17:53:22.698Z,99.77
2023-01-09T17:55:52.045Z,99.98
2023-01-09T17:58:27.084Z,99.25
2023-01-09T18:06:14.368Z,98.27
2023-01-09T18:11:18.277Z,98.56
2023-01-09T18:13:48.380Z,98.55
2023-01-09T18:18:45.354Z,98.78
2023-01-09T18:23:43.091Z,98.80
2023-01-09T18:31:34.302Z,99.11
2023-01-09T18:34:04.260Z,97.85
2023-01-09T18:39:01.320Z,98.35
2023-01-09T18:43:58.444Z,98.34
2023-01-09T18:51:21.380Z,98.18
2023-01-09T18:56:18.462Z,98.22
2023-01-09T19:01:15.470Z,99.27
2023-01-09T19:11:34.709Z,100.00
2023-01-09T19:16:32.596Z,100.00
2023-01-09T19:21:30.435Z,100.00
2023-01-09T19:26:27.452Z,100.00
2023-01-09T19:31:24.455Z,100.00
2023-01-09T19:33:55.529Z,100.00
2023-01-09T19:36:25.351Z,100.00
2023-01-09T19:41:22.381Z,100.00
2023-01-09T19:46:17.498Z,100.00
2023-01-09T19:51:14.437Z,100.00
2023-01-09T19:56:11.357Z,100.00
2023-01-09T20:01:38.814Z,100.00
2023-01-09T20:04:13.799Z,100.00
2023-01-09T20:06:41.512Z,100.00
2023-01-09T20:11:36.447Z,100.00
2023-01-09T20:16:41.404Z,100.00
2023-01-09T20:21:38.365Z,100.00
2023-01-09T20:26:35.477Z,100.00
2023-01-09T20:34:00.447Z,100.00
2023-01-09T20:38:57.337Z,100.00
2023-01-09T20:43:55.305Z,100.00
2023-01-09T20:49:02.994Z,100.00
2023-01-09T20:51:30.879Z,100.00
2023-01-09T20:59:12.797Z,100.00
2023-01-09T21:09:21.540Z,100.00
2023-01-09T21:16:54.030Z,100.00
2023-01-09T21:21:53.609Z,100.00
2023-01-09T21:26:53.434Z,100.00
2023-01-09T21:31:50.496Z,100.00
2023-01-09T21:36:48.879Z,100.00
2023-01-09T21:41:44.418Z,100.00
2023-01-09T21:49:26.455Z,100.00
2023-01-09T21:51:56.467Z,100.00
2023-01-09T21:56:53.449Z,100.00
2023-01-09T21:59:22.803Z,100.00
2023-01-09T22:01:50.817Z,100.00
2023-01-09T22:04:20.584Z,100.00
2023-01-09T22:06:48.281Z,100.00
2023-01-09T22:09:16.435Z,100.00
2023-01-09T22:11:44.713Z,100.00
2023-01-09T22:14:13.250Z,100.00
2023-01-09T22:16:43.482Z,100.00
2023-01-09T22:19:11.448Z,100.00
2023-01-09T22:21:39.044Z,100.00
2023-01-09T22:24:07.807Z,100.00
2023-01-09T22:26:35.913Z,100.00
2023-01-09T22:29:03.510Z,100.00
2023-01-09T22:31:32.775Z,100.00
2023-01-09T22:34:03.304Z,100.00
2023-01-09T22:36:31.749Z,100.00
2023-01-09T22:39:00.782Z,100.00
2023-01-09T22:41:29.859Z,100.00
2023-01-09T22:43:57.859Z,100.00
2023-01-09T22:46:25.810Z,100.00
2023-01-09T22:48:53.393Z,100.00
2023-01-09T22:51:22.799Z,100.00
2023-01-09T22:53:51.176Z,100.00
2023-01-09T22:56:20.529Z,100.00
2023-01-09T22:58:51.565Z,100.00
2023-01-09T23:01:19.707Z,100.00
2023-01-09T23:03:47.783Z,100.00
2023-01-09T23:06:16.901Z,100.00
2023-01-09T23:08:46.787Z,100.00
2023-01-09T23:11:16.202Z,100.00
2023-01-09T23:13:46.962Z,100.00
2023-01-09T23:16:18.546Z,100.00
2023-01-09T23:18:48.223Z,100.00
2023-01-09T23:21:16.553Z,100.00
2023-01-09T23:23:45.443Z,100.00
2023-01-09T23:26:14.895Z,100.00
2023-01-09T23:28:42.589Z,100.00
2023-01-09T23:31:10.333Z,100.00
2023-01-09T23:33:38.021Z,100.00
2023-01-09T23:36:06.490Z,100.00
2023-01-09T23:38:35.349Z,100.00
2023-01-09T23:41:03.182Z,100.00
2023-01-09T23:43:31.782Z,100.00
2023-01-09T23:45:59.548Z,100.00
2023-01-09T23:48:27.676Z,100.00
2023-01-09T23:50:59.499Z,100.00
2023-01-09T23:53:27.563Z,100.00
2023-01-09T23:55:55.879Z,100.00
2023-01-09T23:58:23.604Z,100.00
